createdAt,value
2023-02-01T00:03:47.466Z,21.32
2023-02-01T00:08:54.212Z,21.15
2023-02-01T00:14:00.217Z,21.97
2023-02-01T00:19:09.820Z,21.31
2023-02-01T00:24:14.709Z,19.80
2023-02-01T00:29:19.981Z,20.44
2023-02-01T00:34:28.278Z,20.53
2023-02-01T00:39:33.157Z,19.77
2023-02-01T00:44:37.913Z,19.56
2023-02-01T00:49:41.297Z,19.95
2023-02-01T00:54:46.204Z,19.06
2023-02-01T00:59:51.780Z,21.14
2023-02-01T01:04:55.298Z,19.52
2023-02-01T01:10:00.291Z,17.06
2023-02-01T01:15:03.749Z,17.88
2023-02-01T01:20:07.507Z,20.31
2023-02-01T01:25:14.742Z,21.01
2023-02-01T01:30:20.613Z,21.99
2023-02-01T01:35:24.148Z,33.88
2023-02-01T01:40:32.291Z,24.01
2023-02-01T01:45:36.622Z,24.07
2023-02-01T01:50:42.903Z,24.06
2023-02-01T01:55:52.741Z,31.08
2023-02-01T02:00:56.879Z,25.50
2023-02-01T02:06:05.030Z,25.21
2023-02-01T02:11:16.237Z,24.89
2023-02-01T02:16:29.301Z,24.70
2023-02-01T02:21:52.047Z,22.49
2023-02-01T02:27:06.684Z,24.97
2023-02-01T02:32:26.367Z,14.18
2023-02-01T02:37:37.825Z,8.22
2023-02-01T02:43:02.606Z,6.36
2023-02-01T02:48:15.468Z,7.08
2023-02-01T02:53:42.638Z,7.18
2023-02-01T02:59:06.372Z,7.82
2023-02-01T03:04:11.205Z,7.00
2023-02-01T03:09:24.455Z,7.10
2023-02-01T03:14:32.103Z,8.25
2023-02-01T03:19:39.631Z,18.99
2023-02-01T03:24:47.505Z,9.34
2023-02-01T03:29:55.853Z,7.99
2023-02-01T03:35:00.216Z,9.43
2023-02-01T03:40:12.585Z,12.47
2023-02-01T03:45:21.672Z,8.26
2023-02-01T03:50:29.319Z,8.26
2023-02-01T03:55:34.783Z,9.52
2023-02-01T04:00:46.076Z,11.08
2023-02-01T04:05:49.506Z,10.51
2023-02-01T04:10:54.482Z,26.83
2023-02-01T04:15:57.953Z,26.31
2023-02-01T04:21:04.691Z,27.01
2023-02-01T04:26:14.088Z,29.48
2023-02-01T04:31:26.529Z,25.23
2023-02-01T04:36:30.154Z,22.50
2023-02-01T04:41:39.559Z,22.61
2023-02-01T04:46:46.076Z,20.19
2023-02-01T04:51:49.520Z,22.11
2023-02-01T04:56:54.297Z,27.21
2023-02-01T05:01:57.696Z,24.92
2023-02-01T05:07:01.119Z,25.15
2023-02-01T05:12:29.290Z,37.84
2023-02-01T05:17:35.876Z,28.14
2023-02-01T05:22:44.108Z,30.82
2023-02-01T05:27:48.904Z,29.51
2023-02-01T05:32:52.680Z,26.29
2023-02-01T05:37:56.202Z,25.76
2023-02-01T05:43:00.955Z,25.07
2023-02-01T05:48:04.453Z,25.79
2023-02-01T05:53:08.056Z,28.72
2023-02-01T05:58:13.370Z,27.87
2023-02-01T06:03:16.759Z,27.37
2023-02-01T06:08:20.270Z,27.40
2023-02-01T06:13:25.119Z,28.39
2023-02-01T06:18:32.048Z,26.44
2023-02-01T06:23:35.475Z,34.00
2023-02-01T06:28:40.837Z,32.05
2023-02-01T06:33:44.283Z,35.92
2023-02-01T06:38:47.790Z,34.09
2023-02-01T06:43:52.570Z,35.75
2023-02-01T06:48:56.737Z,36.08
2023-02-01T06:54:03.267Z,38.18
2023-02-01T06:59:08.247Z,47.08
2023-02-01T07:04:12.462Z,44.89
2023-02-01T07:09:16.006Z,31.09
2023-02-01T07:14:20.805Z,56.14
2023-02-01T07:19:26.475Z,50.15
2023-02-01T07:24:30.183Z,40.35
2023-02-01T07:29:34.921Z,35.29
2023-02-01T07:34:38.434Z,31.69
2023-02-01T07:39:41.884Z,27.92
2023-02-01T07:44:46.710Z,29.44
2023-02-01T07:49:50.231Z,27.47
2023-02-01T07:54:53.619Z,30.09
2023-02-01T08:00:20.949Z,33.52
2023-02-01T08:05:30.216Z,30.42
2023-02-01T08:10:34.157Z,32.21
2023-02-01T08:15:41.296Z,30.51
2023-02-01T08:20:46.589Z,30.38
2023-02-01T08:25:50.111Z,29.89
2023-02-01T08:30:54.884Z,31.74
2023-02-01T08:35:58.425Z,46.87
2023-02-01T08:41:06.527Z,35.44
2023-02-01T08:46:12.166Z,35.08
2023-02-01T08:51:19.389Z,27.92
2023-02-01T08:56:22.835Z,28.90
2023-02-01T09:01:27.749Z,27.37
2023-02-01T09:06:36.575Z,27.15
2023-02-01T09:11:39.983Z,25.69
2023-02-01T09:16:49.447Z,23.71
2023-02-01T09:21:53.014Z,26.18
2023-02-01T09:26:56.429Z,49.31
2023-02-01T09:32:04.409Z,28.86
2023-02-01T09:37:08.313Z,30.56
2023-02-01T09:42:23.499Z,30.78
2023-02-01T09:47:28.955Z,27.49
2023-02-01T09:52:38.411Z,31.95
2023-02-01T09:57:47.411Z,29.85
2023-02-01T10:02:52.446Z,30.14
2023-02-01T10:08:04.301Z,25.53
2023-02-01T10:13:34.516Z,34.05
2023-02-01T10:18:56.817Z,47.09
2023-02-01T10:24:18.180Z,28.57
2023-02-01T10:29:25.336Z,29.01
2023-02-01T10:34:29.894Z,27.69
2023-02-01T10:39:34.645Z,27.77
2023-02-01T10:44:44.030Z,25.25
2023-02-01T10:49:54.940Z,27.96
2023-02-01T10:55:19.711Z,32.17
2023-02-01T11:00:24.606Z,50.44
2023-02-01T11:05:28.263Z,31.64
2023-02-01T11:10:37.505Z,29.49
2023-02-01T11:15:47.559Z,31.37
2023-02-01T11:20:52.945Z,29.55
2023-02-01T11:25:58.228Z,29.97
2023-02-01T11:31:08.785Z,31.45
2023-02-01T11:36:15.373Z,29.92
2023-02-01T11:41:23.336Z,29.67
2023-02-01T11:46:30.816Z,33.42
2023-02-01T11:51:43.735Z,29.74
2023-02-01T11:56:55.606Z,39.98
2023-02-01T12:02:13.918Z,29.35
2023-02-01T12:07:24.670Z,30.20
2023-02-01T12:12:36.628Z,34.37
2023-02-01T12:17:55.206Z,30.33
2023-02-01T12:23:12.275Z,25.48
2023-02-01T12:28:31.927Z,24.86
2023-02-01T12:33:48.285Z,26.56
2023-02-01T12:38:56.713Z,30.88
2023-02-01T12:44:11.028Z,26.74
2023-02-01T12:49:18.987Z,16.23
2023-02-01T12:54:36.971Z,15.67
2023-02-01T12:59:43.901Z,28.58
2023-02-01T13:04:59.111Z,14.25
2023-02-01T13:10:11.056Z,13.65
2023-02-01T13:15:19.255Z,14.02
2023-02-01T13:20:28.873Z,12.37
2023-02-01T13:25:40.144Z,12.64
2023-02-01T13:30:56.939Z,12.79
2023-02-01T13:36:22.986Z,13.14
2023-02-01T13:41:30.959Z,13.17
2023-02-01T13:46:41.792Z,12.67
2023-02-01T13:51:48.159Z,14.16
2023-02-01T13:56:53.083Z,13.06
2023-02-01T14:02:32.996Z,17.72
2023-02-01T14:07:38.763Z,18.03
2023-02-01T14:12:51.023Z,27.56
2023-02-01T14:17:55.401Z,25.86
2023-02-01T14:23:03.428Z,28.39
2023-02-01T14:28:14.463Z,28.40
2023-02-01T14:33:23.989Z,30.83
2023-02-01T14:38:27.758Z,31.63
2023-02-01T14:44:14.906Z,24.75
2023-02-01T14:49:20.935Z,28.81
2023-02-01T14:54:25.511Z,47.30
2023-02-01T14:59:34.353Z,27.27
2023-02-01T15:04:43.761Z,28.38
2023-02-01T15:09:49.833Z,27.49
2023-02-01T15:15:13.280Z,27.58
2023-02-01T15:20:23.274Z,25.35
2023-02-01T15:25:29.062Z,23.99
2023-02-01T15:30:35.744Z,25.56
2023-02-01T15:35:44.201Z,28.30
2023-02-01T15:40:55.880Z,23.88
2023-02-01T15:46:02.575Z,26.12
2023-02-01T15:51:14.690Z,21.82
2023-02-01T15:56:23.515Z,23.21
2023-02-01T16:01:28.380Z,23.79
2023-02-01T16:06:35.540Z,23.97
2023-02-01T16:11:49.115Z,21.35
2023-02-01T16:16:59.207Z,22.04
2023-02-01T16:22:02.644Z,27.89
2023-02-01T16:27:08.747Z,25.45
2023-02-01T16:32:18.299Z,23.76
2023-02-01T16:37:23.851Z,28.21
2023-02-01T16:42:27.221Z,23.42
2023-02-01T16:47:32.021Z,28.71
2023-02-01T16:52:37.775Z,27.67
2023-02-01T16:57:41.604Z,33.38
2023-02-01T17:02:46.788Z,23.74
2023-02-01T17:07:50.377Z,24.21
2023-02-01T17:12:53.753Z,22.10
2023-02-01T17:18:00.757Z,21.63
2023-02-01T17:23:07.157Z,28.80
2023-02-01T17:28:10.714Z,25.02
2023-02-01T17:33:22.790Z,27.25
2023-02-01T17:38:26.323Z,24.53
2023-02-01T17:43:29.976Z,23.70
2023-02-01T17:48:36.976Z,27.23
2023-02-01T17:53:40.421Z,31.60
2023-02-01T17:58:46.664Z,24.91
2023-02-01T18:03:53.627Z,26.77
2023-02-01T18:08:59.443Z,23.88
2023-02-01T18:14:02.911Z,25.51
2023-02-01T18:19:07.644Z,26.64
2023-02-01T18:24:19.371Z,45.20
2023-02-01T18:29:22.761Z,30.45
2023-02-01T18:34:27.614Z,32.32
2023-02-01T18:39:31.137Z,22.56
2023-02-01T18:44:41.183Z,32.80
2023-02-01T18:49:45.995Z,32.88
2023-02-01T18:54:59.065Z,22.34
2023-02-01T19:00:06.748Z,24.50
2023-02-01T19:05:13.737Z,27.33
2023-02-01T19:10:19.112Z,27.61
2023-02-01T19:15:23.652Z,29.13
2023-02-01T19:20:29.082Z,23.52
2023-02-01T19:25:32.774Z,24.61
2023-02-01T19:30:36.261Z,24.77
2023-02-01T19:35:41.275Z,25.14
2023-02-01T19:40:50.060Z,21.69
2023-02-01T19:45:54.161Z,25.10
2023-02-01T19:51:00.580Z,39.72
2023-02-01T19:56:07.201Z,29.27
2023-02-01T20:01:13.403Z,29.07
2023-02-01T20:06:18.974Z,21.67
2023-02-01T20:11:23.355Z,18.45
2023-02-01T20:16:30.093Z,23.18
2023-02-01T20:21:34.875Z,24.53
2023-02-01T20:26:42.042Z,22.49
2023-02-01T20:31:47.954Z,25.18
2023-02-01T20:36:52.866Z,25.52
2023-02-01T20:41:57.016Z,24.14
2023-02-01T20:47:00.527Z,25.48
2023-02-01T20:52:05.346Z,25.99
2023-02-01T20:57:11.323Z,26.77
2023-02-01T21:02:14.966Z,27.18
2023-02-01T21:07:20.216Z,26.18
2023-02-01T21:12:23.718Z,25.86
2023-02-01T21:17:28.620Z,24.19
2023-02-01T21:22:38.022Z,25.79
2023-02-01T21:27:41.430Z,22.98
2023-02-01T21:32:44.927Z,21.50
2023-02-01T21:37:49.682Z,18.96
2023-02-01T21:42:55.314Z,19.76
2023-02-01T21:47:58.844Z,22.04
2023-02-01T21:53:04.676Z,22.06
2023-02-01T21:58:12.692Z,24.53
2023-02-01T22:03:16.121Z,23.37
2023-02-01T22:08:20.979Z,21.67
2023-02-01T22:13:24.495Z,24.04
2023-02-01T22:18:28.383Z,22.90
2023-02-01T22:23:33.171Z,25.03
2023-02-01T22:28:39.796Z,23.99
2023-02-01T22:33:43.380Z,23.83
2023-02-01T22:38:50.875Z,21.23
2023-02-01T22:43:56.596Z,22.04
2023-02-01T22:49:00.442Z,21.09
2023-02-01T22:54:05.213Z,22.80
2023-02-01T22:59:12.715Z,19.39
2023-02-01T23:04:21.390Z,17.14
2023-02-01T23:09:27.016Z,18.14
2023-02-01T23:14:30.414Z,20.75
2023-02-01T23:19:36.125Z,20.62
2023-02-01T23:24:43.294Z,18.35
2023-02-01T23:29:49.076Z,19.40
2023-02-01T23:34:52.559Z,21.70
2023-02-01T23:39:57.342Z,20.60
2023-02-01T23:45:00.780Z,20.75
2023-02-01T23:50:04.224Z,21.73
2023-02-01T23:55:09.533Z,20.69
